Time;durP1;ratioP1;P1;durP2;ratioP2;P2;SDS_P1;SDS_P2;PMS_P1;PMS_P2;Temp;Humidity;BMP_temperature;BMP_pressure;BME280_temperature;BME280_humidity;BME280_pressure;Samples;Min_cycle;Max_cycle;Signal;HPM_P1;HPM_P2
2023/01/30 00:01:31;;;;;;;27.73;12.45;;;6.10;99.90;;;;;;5086765;28;20032;-37
2023/01/30 00:03:57;;;;;;;23.10;12.43;;;6.10;99.90;;;;;;5081702;28;20039;-38
2023/01/30 00:06:24;;;;;;;27.02;12.65;;;6.10;99.90;;;;;;5085825;28;20032;-39
2023/01/30 00:08:50;;;;;;;26.27;13.23;;;6.10;99.90;;;;;;5085515;28;20040;-37
2023/01/30 00:11:18;;;;;;;21.67;10.75;;;6.20;99.90;;;;;;5083263;28;20461;-37
2023/01/30 00:13:44;;;;;;;22.52;11.77;;;6.20;99.90;;;;;;5085247;28;20481;-37
2023/01/30 00:16:11;;;;;;;25.67;12.45;;;6.20;99.90;;;;;;5083412;28;20200;-38
2023/01/30 00:18:38;;;;;;;24.13;12.07;;;6.20;99.90;;;;;;5087043;28;20101;-38
2023/01/30 00:21:06;;;;;;;27.05;12.07;;;6.20;99.90;;;;;;5080668;28;20093;-37
2023/01/30 00:23:33;;;;;;;24.40;12.15;;;6.20;99.90;;;;;;5083007;28;20154;-37
2023/01/30 00:26:00;;;;;;;23.73;11.77;;;6.20;99.90;;;;;;5087939;28;20028;-37
2023/01/30 00:28:26;;;;;;;24.73;12.25;;;6.20;99.90;;;;;;5083753;28;20552;-37
2023/01/30 00:30:54;;;;;;;20.92;11.13;;;6.20;99.90;;;;;;5082902;28;20071;-37
2023/01/30 00:33:21;;;;;;;26.85;11.73;;;6.20;99.90;;;;;;5083537;28;20044;-39
2023/01/30 00:35:49;;;;;;;19.35;10.15;;;6.20;99.90;;;;;;5087394;28;20494;-38
2023/01/30 00:38:15;;;;;;;23.33;12.13;;;6.20;99.90;;;;;;5087296;28;20036;-37
2023/01/30 00:40:42;;;;;;;24.77;11.02;;;6.30;99.90;;;;;;5089351;28;20618;-37
2023/01/30 00:48:41;;;;;;;16.85;8.18;;;6.40;99.90;;;;;;5086698;28;20122;-37
2023/01/30 00:51:07;;;;;;;17.67;8.05;;;6.40;99.90;;;;;;5067659;28;20135;-37
2023/01/30 00:53:32;;;;;;;18.10;8.50;;;6.50;99.90;;;;;;5089932;28;20042;-37
2023/01/30 00:55:58;;;;;;;17.20;8.10;;;6.50;99.90;;;;;;5087329;28;20735;-38
2023/01/30 00:58:24;;;;;;;15.40;7.20;;;6.60;99.90;;;;;;5086356;28;20068;-38
2023/01/30 01:00:51;;;;;;;18.00;7.38;;;6.60;99.90;;;;;;5086737;28;20114;-41
2023/01/30 01:03:17;;;;;;;17.20;7.30;;;6.70;99.90;;;;;;5087049;28;20043;-37
2023/01/30 01:05:43;;;;;;;19.40;8.52;;;6.70;99.90;;;;;;5087196;28;20064;-39
2023/01/30 01:08:10;;;;;;;17.98;8.02;;;6.80;99.90;;;;;;5085081;28;20070;-37
2023/01/30 01:10:36;;;;;;;14.75;6.72;;;6.70;99.90;;;;;;5084831;28;20079;-37
2023/01/30 01:13:02;;;;;;;14.80;7.57;;;6.80;99.90;;;;;;5088668;28;20036;-37
2023/01/30 01:15:28;;;;;;;13.02;6.93;;;6.80;99.90;;;;;;5058537;28;20040;-38
2023/01/30 01:17:54;;;;;;;14.98;7.75;;;6.70;99.90;;;;;;5080710;28;20123;-38
2023/01/30 01:20:21;;;;;;;13.48;6.70;;;6.70;99.90;;;;;;5082529;28;20123;-38
2023/01/30 01:22:50;;;;;;;17.65;6.13;;;6.70;99.90;;;;;;5076083;28;20032;-38
2023/01/30 01:25:18;;;;;;;14.88;6.03;;;6.70;99.90;;;;;;5080301;28;20123;-37
2023/01/30 01:27:45;;;;;;;19.50;7.53;;;6.60;99.90;;;;;;5075867;28;20044;-38
2023/01/30 01:30:11;;;;;;;14.10;6.25;;;6.60;99.90;;;;;;5083138;28;20123;-38
2023/01/30 01:32:37;;;;;;;15.38;5.78;;;6.50;99.90;;;;;;5082965;28;20044;-37
2023/01/30 01:35:03;;;;;;;11.65;5.82;;;6.50;99.90;;;;;;5064514;28;20044;-38
2023/01/30 01:37:29;;;;;;;8.43;3.67;;;6.50;99.90;;;;;;5081691;28;20086;-38
2023/01/30 01:42:39;;;;;;;11.68;4.60;;;6.50;99.90;;;;;;5087503;28;20037;-41
2023/01/30 01:45:10;;;;;;;12.48;4.47;;;6.50;99.90;;;;;;5088116;28;20028;-38
2023/01/30 01:47:39;;;;;;;12.13;4.57;;;6.60;99.90;;;;;;5085532;28;20387;-38
2023/01/30 01:50:06;;;;;;;12.38;4.00;;;6.60;99.90;;;;;;5086802;28;20526;-37
2023/01/30 01:52:32;;;;;;;10.43;3.83;;;6.60;99.90;;;;;;5085737;28;20705;-37
2023/01/30 01:55:02;;;;;;;15.50;3.80;;;6.60;99.90;;;;;;5084719;28;20051;-38
2023/01/30 01:57:40;;;;;;;8.57;3.47;;;6.60;99.90;;;;;;5086423;28;20048;-37
2023/01/30 02:00:11;;;;;;;12.52;4.15;;;6.60;99.90;;;;;;5086072;28;20530;-38
2023/01/30 02:02:44;;;;;;;7.22;2.88;;;6.50;99.90;;;;;;5080275;28;20055;-37
2023/01/30 02:05:13;;;;;;;6.93;2.88;;;6.50;99.90;;;;;;5060520;28;20044;-38
2023/01/30 02:07:44;;;;;;;12.55;3.58;;;6.50;99.90;;;;;;5082922;28;20442;-38
2023/01/30 02:10:19;;;;;;;13.82;3.25;;;6.50;99.90;;;;;;5083133;28;20043;-38
2023/01/30 02:12:46;;;;;;;15.25;4.35;;;6.50;99.90;;;;;;5085750;28;20486;-37
2023/01/30 02:15:12;;;;;;;11.85;3.15;;;6.50;99.90;;;;;;5083132;28;20544;-40
2023/01/30 02:17:38;;;;;;;7.72;2.40;;;6.50;99.90;;;;;;5079978;28;20042;-37
2023/01/30 02:20:15;;;;;;;10.02;3.03;;;6.50;99.90;;;;;;5088677;28;20031;-37
2023/01/30 02:22:52;;;;;;;5.97;2.90;;;6.60;99.90;;;;;;5081761;28;20032;-38
2023/01/30 02:25:40;;;;;;;9.25;2.85;;;6.50;99.90;;;;;;5058647;28;20044;-38
2023/01/30 02:28:31;;;;;;;10.02;2.50;;;6.50;99.90;;;;;;5081421;28;20049;-39
2023/01/30 02:31:28;;;;;;;12.98;2.95;;;6.50;99.90;;;;;;5082208;28;20035;-39
2023/01/30 02:34:18;;;;;;;13.60;3.10;;;6.50;99.90;;;;;;5087344;28;20051;-40
2023/01/30 02:37:10;;;;;;;7.70;2.33;;;6.50;99.90;;;;;;5073735;28;20040;-38
2023/01/30 02:39:47;;;;;;;8.95;2.88;;;6.50;99.90;;;;;;5087079;28;20043;-37
2023/01/30 02:42:31;;;;;;;9.30;3.28;;;6.50;99.90;;;;;;5084622;28;20174;-40
2023/01/30 02:45:05;;;;;;;12.50;2.88;;;6.50;99.90;;;;;;5084422;28;20091;-37
2023/01/30 02:47:38;;;;;;;11.25;3.15;;;6.50;99.90;;;;;;5081178;28;20040;-38
2023/01/30 02:50:15;;;;;;;9.45;3.30;;;6.50;99.90;;;;;;5083407;28;20096;-39
2023/01/30 02:52:42;;;;;;;11.65;2.67;;;6.50;99.90;;;;;;5080981;28;20060;-38
2023/01/30 02:55:22;;;;;;;7.90;2.60;;;6.50;99.90;;;;;;5087896;28;20038;-37
2023/01/30 02:57:48;;;;;;;10.80;3.35;;;6.50;99.90;;;;;;5083666;28;20085;-38
2023/01/30 03:00:20;;;;;;;7.78;2.22;;;6.60;99.90;;;;;;5086087;28;20028;-38
2023/01/30 03:03:06;;;;;;;7.20;2.42;;;6.50;99.90;;;;;;5085208;28;20043;-39
2023/01/30 03:05:52;;;;;;;15.32;3.28;;;6.60;99.90;;;;;;5079822;28;20114;-38
2023/01/30 03:08:33;;;;;;;14.13;2.50;;;6.60;99.90;;;;;;5049065;28;20039;-37
2023/01/30 03:11:03;;;;;;;8.50;2.10;;;6.70;99.90;;;;;;5075432;28;20067;-37
2023/01/30 03:13:31;;;;;;;8.35;3.25;;;6.70;99.90;;;;;;5086643;28;20070;-40
2023/01/30 03:16:12;;;;;;;9.30;2.58;;;6.70;99.90;;;;;;5082317;28;20488;-38
2023/01/30 03:18:43;;;;;;;11.90;2.47;;;6.70;99.90;;;;;;5084364;28;20040;-39
2023/01/30 03:21:10;;;;;;;11.77;2.33;;;6.70;99.90;;;;;;5084145;28;20048;-41
2023/01/30 03:23:37;;;;;;;6.80;2.25;;;6.70;99.90;;;;;;5084749;28;20511;-39
2023/01/30 03:26:05;;;;;;;7.82;2.53;;;6.70;99.90;;;;;;5079822;28;20367;-36
2023/01/30 03:28:31;;;;;;;8.25;1.95;;;6.70;99.90;;;;;;5084374;28;20058;-38
2023/01/30 03:30:57;;;;;;;12.43;2.25;;;6.70;99.90;;;;;;5086668;28;20051;-37
2023/01/30 03:33:23;;;;;;;10.82;2.47;;;6.70;99.90;;;;;;5086390;28;20040;-39
2023/01/30 03:35:50;;;;;;;9.88;2.53;;;6.70;99.90;;;;;;5084863;28;20511;-38
2023/01/30 03:38:17;;;;;;;10.30;2.40;;;6.70;99.90;;;;;;5078280;28;20494;-37
2023/01/30 03:40:43;;;;;;;13.15;2.72;;;6.70;99.90;;;;;;5076849;28;20996;-37
2023/01/30 03:43:09;;;;;;;8.77;2.50;;;6.70;99.90;;;;;;5077443;28;20047;-36
2023/01/30 03:45:35;;;;;;;13.27;3.00;;;6.70;99.90;;;;;;5077479;28;20032;-38
2023/01/30 03:48:00;;;;;;;12.32;3.15;;;6.70;99.90;;;;;;5081550;28;20043;-37
2023/01/30 03:50:26;;;;;;;12.23;3.00;;;6.70;99.90;;;;;;5087237;28;20039;-38
2023/01/30 03:52:52;;;;;;;19.30;3.67;;;6.70;99.90;;;;;;5082138;28;20074;-36
2023/01/30 03:55:18;;;;;;;18.63;4.15;;;6.80;99.90;;;;;;5087272;28;20044;-37
2023/01/30 03:57:44;;;;;;;10.27;3.00;;;6.70;99.90;;;;;;5084612;28;20036;-37
2023/01/30 04:00:10;;;;;;;8.98;2.13;;;6.70;99.90;;;;;;5084003;28;20044;-39
2023/01/30 04:02:37;;;;;;;15.45;3.65;;;6.70;99.90;;;;;;5082883;28;20074;-36
2023/01/30 04:05:04;;;;;;;14.38;2.88;;;6.70;99.90;;;;;;5087801;28;20051;-37
2023/01/30 04:07:30;;;;;;;12.30;2.47;;;6.70;99.90;;;;;;5087245;28;20066;-38
2023/01/30 04:09:55;;;;;;;14.88;2.42;;;6.70;99.90;;;;;;5074972;28;20035;-39
2023/01/30 04:12:21;;;;;;;11.77;2.65;;;6.70;99.90;;;;;;5085858;28;20042;-36
2023/01/30 04:14:46;;;;;;;7.97;2.03;;;6.70;99.90;;;;;;5091184;28;20040;-36
2023/01/30 04:17:12;;;;;;;14.80;3.17;;;6.80;99.90;;;;;;5090929;28;20071;-36
2023/01/30 04:19:38;;;;;;;10.52;2.38;;;6.80;99.90;;;;;;5089551;28;20724;-43
2023/01/30 04:22:03;;;;;;;12.48;2.20;;;6.80;99.90;;;;;;5090151;28;20032;-36
2023/01/30 04:24:29;;;;;;;11.65;2.28;;;6.80;99.90;;;;;;5091490;28;20040;-37
2023/01/30 04:26:55;;;;;;;11.45;1.88;;;6.80;99.90;;;;;;5088873;28;20484;-36
2023/01/30 04:29:20;;;;;;;14.50;2.03;;;6.80;99.90;;;;;;5086755;28;20032;-36
2023/01/30 04:31:46;;;;;;;11.70;2.25;;;6.80;99.90;;;;;;5091556;28;20040;-36
2023/01/30 04:34:12;;;;;;;10.13;1.60;;;6.80;99.90;;;;;;5092168;28;20036;-36
2023/01/30 04:36:37;;;;;;;11.40;2.80;;;6.80;99.90;;;;;;5093378;28;20044;-39
2023/01/30 04:39:03;;;;;;;7.80;1.70;;;6.80;99.90;;;;;;5089826;28;20115;-39
2023/01/30 04:41:29;;;;;;;5.78;1.80;;;6.80;99.90;;;;;;5093862;28;20031;-43
2023/01/30 04:43:55;;;;;;;13.65;1.25;;;6.80;99.90;;;;;;5085146;28;20047;-38
2023/01/30 04:46:21;;;;;;;9.30;1.63;;;6.80;99.90;;;;;;5085440;28;20024;-37
2023/01/30 04:48:46;;;;;;;10.57;1.45;;;6.80;99.90;;;;;;5090745;28;20063;-37
2023/01/30 04:51:12;;;;;;;6.57;1.38;;;6.80;99.90;;;;;;5089590;28;21337;-37
2023/01/30 04:53:37;;;;;;;10.50;1.60;;;6.90;99.90;;;;;;5085546;28;20055;-39
2023/01/30 04:56:04;;;;;;;9.05;1.73;;;6.80;99.90;;;;;;5085114;28;20036;-38
2023/01/30 04:58:29;;;;;;;9.75;1.40;;;6.80;99.90;;;;;;5090762;28;20481;-37
2023/01/30 05:00:55;;;;;;;8.88;1.45;;;6.80;99.90;;;;;;5088983;28;20066;-50
2023/01/30 05:03:21;;;;;;;8.68;1.33;;;6.80;99.90;;;;;;5092451;28;20097;-44
2023/01/30 05:05:47;;;;;;;7.63;1.20;;;6.80;99.90;;;;;;5092018;28;20024;-37
2023/01/30 05:08:14;;;;;;;11.75;2.35;;;6.70;99.90;;;;;;5092227;28;20085;-39
2023/01/30 05:10:40;;;;;;;8.77;1.50;;;6.70;99.90;;;;;;5086823;28;20126;-37
2023/01/30 05:13:06;;;;;;;11.40;1.88;;;6.60;99.90;;;;;;5080968;28;20038;-37
2023/01/30 05:15:32;;;;;;;7.68;1.67;;;6.60;99.90;;;;;;5086142;28;20040;-37
2023/01/30 05:17:58;;;;;;;8.82;1.60;;;6.70;99.90;;;;;;5088105;28;21016;-36
2023/01/30 05:20:24;;;;;;;11.43;1.50;;;6.70;99.90;;;;;;5086219;28;20046;-37
2023/01/30 05:22:50;;;;;;;11.43;1.73;;;6.60;99.90;;;;;;5080649;28;20040;-36
2023/01/30 05:25:16;;;;;;;11.45;2.35;;;6.60;99.90;;;;;;5081859;28;20081;-38
2023/01/30 05:27:41;;;;;;;17.73;2.88;;;6.60;99.90;;;;;;5087934;28;20153;-36
2023/01/30 05:30:08;;;;;;;7.97;1.33;;;6.60;99.90;;;;;;5085094;28;20070;-36
2023/01/30 05:32:33;;;;;;;9.20;1.52;;;6.50;99.90;;;;;;5084449;28;20040;-37
2023/01/30 05:34:59;;;;;;;13.52;2.00;;;6.50;99.90;;;;;;5087234;28;20493;-36
2023/01/30 05:37:25;;;;;;;13.95;2.75;;;6.50;99.90;;;;;;5084411;28;20056;-41
2023/01/30 05:39:51;;;;;;;16.90;2.72;;;6.40;99.90;;;;;;5081209;28;20044;-38
2023/01/30 05:42:16;;;;;;;17.10;2.40;;;6.40;99.90;;;;;;5082697;28;20115;-40
2023/01/30 05:44:42;;;;;;;15.90;3.22;;;6.30;99.90;;;;;;5080200;28;20044;-37
2023/01/30 05:47:08;;;;;;;15.48;3.05;;;6.20;99.90;;;;;;5081545;28;20088;-37
2023/01/30 05:49:33;;;;;;;13.55;1.85;;;6.20;99.90;;;;;;5084020;28;20032;-37
2023/01/30 05:51:59;;;;;;;17.08;2.25;;;6.10;99.90;;;;;;5084241;28;20082;-37
2023/01/30 05:54:25;;;;;;;10.88;1.80;;;6.10;99.90;;;;;;5084131;28;20055;-37
2023/01/30 05:56:50;;;;;;;14.38;2.38;;;6.00;99.90;;;;;;5081460;28;20051;-37
2023/01/30 05:59:19;;;;;;;14.75;2.15;;;6.00;99.90;;;;;;5084621;28;20040;-36
2023/01/30 06:01:45;;;;;;;11.50;1.67;;;5.90;99.90;;;;;;5087181;28;20526;-38
2023/01/30 06:04:11;;;;;;;10.23;1.40;;;5.90;99.90;;;;;;5082600;28;20127;-37
2023/01/30 06:06:36;;;;;;;7.13;1.88;;;5.90;99.90;;;;;;5086302;28;20024;-37
2023/01/30 06:09:03;;;;;;;10.68;1.60;;;5.90;99.90;;;;;;5082451;28;20051;-37
2023/01/30 06:11:29;;;;;;;21.70;1.95;;;5.90;99.90;;;;;;5083959;28;20043;-37
2023/01/30 06:13:54;;;;;;;9.63;1.52;;;5.90;99.90;;;;;;5078940;28;20624;-47
2023/01/30 06:16:20;;;;;;;12.60;1.15;;;5.80;99.90;;;;;;5082352;28;20044;-38
2023/01/30 06:18:46;;;;;;;11.20;1.90;;;5.80;99.90;;;;;;5086481;28;20401;-38
2023/01/30 06:21:13;;;;;;;7.18;1.42;;;5.70;99.90;;;;;;5083450;28;20028;-37
2023/01/30 06:23:39;;;;;;;10.45;1.60;;;5.70;99.90;;;;;;5084550;28;20032;-38
2023/01/30 06:26:05;;;;;;;13.88;2.20;;;5.70;99.90;;;;;;5081581;28;20032;-40
2023/01/30 06:28:31;;;;;;;8.07;1.88;;;5.60;99.90;;;;;;5085727;28;20104;-38
2023/01/30 06:30:56;;;;;;;7.45;1.40;;;5.60;99.90;;;;;;5078629;28;20051;-37
2023/01/30 06:33:22;;;;;;;15.07;1.75;;;5.60;99.90;;;;;;5084325;28;21682;-39
2023/01/30 06:35:50;;;;;;;14.18;1.80;;;5.60;99.90;;;;;;5084131;28;20043;-37
2023/01/30 06:38:16;;;;;;;14.35;1.85;;;5.60;99.90;;;;;;5084355;28;20086;-41
2023/01/30 06:40:47;;;;;;;14.70;1.42;;;5.70;99.90;;;;;;5083289;28;20032;-38
2023/01/30 06:43:13;;;;;;;16.50;1.85;;;5.70;99.90;;;;;;5077730;28;20127;-37
2023/01/30 06:45:39;;;;;;;16.65;1.73;;;5.70;99.90;;;;;;5081160;28;20036;-38
2023/01/30 06:48:05;;;;;;;10.45;1.85;;;5.70;99.90;;;;;;5083925;28;20378;-37
2023/01/30 06:50:31;;;;;;;13.27;1.65;;;5.70;99.90;;;;;;5084170;28;20504;-42
2023/01/30 06:53:02;;;;;;;9.27;1.60;;;5.70;99.90;;;;;;5080767;28;20068;-37
2023/01/30 06:55:28;;;;;;;17.50;2.13;;;5.60;99.90;;;;;;5081344;28;20047;-44
2023/01/30 06:58:05;;;;;;;9.38;2.20;;;5.60;99.90;;;;;;5079190;28;20028;-38
2023/01/30 07:00:32;;;;;;;13.65;1.98;;;5.60;99.90;;;;;;5057762;28;20120;-37
2023/01/30 07:02:59;;;;;;;11.68;1.35;;;5.60;99.90;;;;;;5084132;28;20044;-37
2023/01/30 07:05:25;;;;;;;14.52;1.33;;;5.60;99.90;;;;;;5077893;28;20544;-38
2023/01/30 07:07:50;;;;;;;12.43;1.70;;;5.60;99.90;;;;;;5084149;28;20129;-38
2023/01/30 07:10:17;;;;;;;12.95;2.33;;;5.50;99.90;;;;;;5070091;28;20497;-37
2023/01/30 07:12:44;;;;;;;12.80;1.25;;;5.50;99.90;;;;;;5069275;28;20417;-38
2023/01/30 07:15:10;;;;;;;10.15;1.23;;;5.50;99.90;;;;;;5070219;28;20862;-36
2023/01/30 07:17:36;;;;;;;12.38;2.28;;;5.50;99.90;;;;;;5072430;28;20048;-39
2023/01/30 07:20:01;;;;;;;10.00;1.48;;;5.50;99.90;;;;;;5063080;28;20034;-37
2023/01/30 07:22:27;;;;;;;14.77;1.75;;;5.60;99.90;;;;;;5079483;28;20615;-39
2023/01/30 07:24:53;;;;;;;10.75;1.45;;;5.50;99.90;;;;;;5083151;28;20042;-44
2023/01/30 07:27:18;;;;;;;20.67;2.65;;;5.60;99.90;;;;;;5084737;28;20043;-38
2023/01/30 07:29:44;;;;;;;18.35;2.75;;;5.60;99.90;;;;;;5082983;28;20032;-47
2023/01/30 07:32:15;;;;;;;11.07;1.27;;;5.70;99.90;;;;;;5078927;28;20054;-38
2023/01/30 07:34:41;;;;;;;13.70;1.73;;;5.70;99.90;;;;;;5077716;28;20147;-37
2023/01/30 07:37:07;;;;;;;8.68;1.08;;;5.70;99.90;;;;;;5080722;28;20177;-39
2023/01/30 07:39:32;;;;;;;13.60;1.45;;;5.70;99.90;;;;;;5082972;28;20035;-37
2023/01/30 07:42:01;;;;;;;13.90;1.67;;;5.70;99.90;;;;;;5078806;28;20539;-37
2023/01/30 07:44:27;;;;;;;12.57;1.50;;;5.80;99.90;;;;;;5080407;28;20036;-37
2023/01/30 07:46:53;;;;;;;15.00;2.53;;;5.80;99.90;;;;;;5078144;28;20046;-37
2023/01/30 07:49:18;;;;;;;17.95;2.25;;;5.90;99.90;;;;;;5085235;28;20047;-38
2023/01/30 07:51:45;;;;;;;14.00;2.08;;;5.90;99.90;;;;;;5081561;28;20091;-39
2023/01/30 07:54:11;;;;;;;16.08;2.05;;;5.90;99.90;;;;;;5085573;28;20052;-38
2023/01/30 07:56:37;;;;;;;11.93;1.63;;;6.00;99.90;;;;;;5084147;28;20032;-36
2023/01/30 07:59:04;;;;;;;19.45;2.30;;;6.00;99.90;;;;;;5084595;28;20485;-38
2023/01/30 08:01:31;;;;;;;13.40;1.88;;;6.10;99.90;;;;;;5079304;28;20066;-37
2023/01/30 08:03:56;;;;;;;16.92;2.63;;;6.20;99.90;;;;;;5081152;28;20047;-37
2023/01/30 08:06:22;;;;;;;19.10;2.08;;;6.20;99.90;;;;;;5079583;28;20035;-40
2023/01/30 08:08:48;;;;;;;12.48;2.30;;;6.20;99.90;;;;;;5083013;28;20161;-37
2023/01/30 08:11:14;;;;;;;13.45;2.10;;;6.20;99.90;;;;;;5074669;28;20093;-39
2023/01/30 08:13:39;;;;;;;17.35;2.38;;;6.20;99.90;;;;;;5084883;28;20032;-37
2023/01/30 08:16:07;;;;;;;17.23;2.53;;;6.30;99.90;;;;;;5073768;28;20035;-38
2023/01/30 08:18:33;;;;;;;13.98;3.05;;;6.30;99.90;;;;;;5071390;28;20121;-42
2023/01/30 08:21:04;;;;;;;17.30;3.17;;;6.30;99.90;;;;;;5079262;28;20035;-37
2023/01/30 08:23:31;;;;;;;12.20;1.73;;;6.30;99.90;;;;;;5083904;28;20041;-38
2023/01/30 08:25:58;;;;;;;14.88;2.45;;;6.30;99.90;;;;;;5072239;28;20040;-37
2023/01/30 08:28:24;;;;;;;14.05;2.13;;;6.30;99.90;;;;;;5078479;28;20089;-37
2023/01/30 08:30:53;;;;;;;13.20;1.40;;;6.30;99.90;;;;;;5074382;28;20084;-38
2023/01/30 08:33:20;;;;;;;8.32;2.50;;;6.30;99.90;;;;;;5076260;28;20043;-39
2023/01/30 08:35:46;;;;;;;18.17;2.38;;;6.30;99.90;;;;;;5076681;28;20473;-39
2023/01/30 08:38:12;;;;;;;14.05;1.90;;;6.40;99.90;;;;;;5076395;28;20051;-38
2023/01/30 08:40:37;;;;;;;18.77;3.53;;;6.40;99.90;;;;;;5080253;28;20036;-38
2023/01/30 08:43:03;;;;;;;19.35;3.20;;;6.40;99.90;;;;;;5065724;28;20122;-41
2023/01/30 08:45:30;;;;;;;18.63;3.17;;;6.40;99.90;;;;;;5075255;28;20575;-37
2023/01/30 08:48:03;;;;;;;10.35;2.25;;;6.40;99.90;;;;;;5083175;28;20044;-46
2023/01/30 08:50:30;;;;;;;16.55;2.40;;;6.50;99.90;;;;;;5079793;28;20040;-38
2023/01/30 08:52:56;;;;;;;12.45;2.53;;;6.50;99.90;;;;;;5080139;28;20485;-38
2023/01/30 08:55:22;;;;;;;13.88;2.00;;;6.50;99.90;;;;;;5073507;28;20564;-38
2023/01/30 08:57:48;;;;;;;9.60;2.00;;;6.50;99.90;;;;;;5076751;28;20098;-36
2023/01/30 09:00:14;;;;;;;12.77;1.98;;;6.50;99.90;;;;;;5080256;28;20032;-37
2023/01/30 09:02:40;;;;;;;12.13;1.70;;;6.50;99.90;;;;;;5083782;28;20094;-41
2023/01/30 09:05:07;;;;;;;14.95;1.52;;;6.60;99.90;;;;;;5076740;28;20499;-38
2023/01/30 09:07:33;;;;;;;13.10;1.60;;;6.60;99.90;;;;;;5082430;28;20050;-39
2023/01/30 09:09:58;;;;;;;9.32;1.52;;;6.60;99.90;;;;;;5080175;28;20036;-37
2023/01/30 09:12:25;;;;;;;10.02;1.73;;;6.60;99.90;;;;;;5081900;28;20046;-39
2023/01/30 09:14:56;;;;;;;9.63;1.10;;;6.60;99.90;;;;;;5069220;28;20193;-37
2023/01/30 09:17:22;;;;;;;13.15;2.05;;;6.70;99.90;;;;;;5078508;28;20036;-37
2023/01/30 09:19:48;;;;;;;15.20;2.22;;;6.70;99.90;;;;;;5080051;28;20063;-37
2023/01/30 09:22:14;;;;;;;11.48;1.55;;;6.70;99.90;;;;;;5080709;28;20157;-36
2023/01/30 09:24:40;;;;;;;12.40;2.25;;;6.70;99.90;;;;;;5078226;28;20039;-40
2023/01/30 09:27:06;;;;;;;10.40;1.48;;;6.70;99.90;;;;;;5077604;28;20040;-41
2023/01/30 09:29:31;;;;;;;15.98;2.67;;;6.80;99.90;;;;;;5081066;28;20048;-36
2023/01/30 09:31:57;;;;;;;14.25;1.95;;;6.80;99.90;;;;;;5085639;28;20032;-37
2023/01/30 09:34:26;;;;;;;6.85;1.48;;;6.80;99.90;;;;;;5077463;28;20365;-38
2023/01/30 09:36:53;;;;;;;6.53;1.27;;;6.80;99.90;;;;;;5058833;28;20050;-37
2023/01/30 09:39:19;;;;;;;17.77;2.47;;;6.90;99.90;;;;;;5084279;28;20036;-38
2023/01/30 09:42:03;;;;;;;13.00;2.92;;;6.90;99.90;;;;;;5065684;28;20043;-38
2023/01/30 09:44:40;;;;;;;16.55;1.60;;;6.90;99.90;;;;;;5079869;28;20075;-39
2023/01/30 09:47:24;;;;;;;20.33;3.80;;;6.90;99.90;;;;;;5079006;28;20047;-38
2023/01/30 09:50:08;;;;;;;10.50;2.00;;;6.80;99.90;;;;;;5087764;28;20032;-52
2023/01/30 09:52:55;;;;;;;14.18;1.85;;;6.80;99.90;;;;;;5076492;28;20172;-37
2023/01/30 09:55:28;;;;;;;13.93;2.72;;;6.80;99.90;;;;;;5077936;28;20512;-40
2023/01/30 09:57:53;;;;;;;;;;;6.90;99.90;;;;;;5074642;28;20049;-38
2023/01/30 10:00:25;;;;;;;13.70;1.50;;;6.90;99.90;;;;;;5062582;28;19924;-38
2023/01/30 10:03:13;;;;;;;12.57;2.00;;;7.00;99.90;;;;;;5078231;28;20489;-38
2023/01/30 10:06:13;;;;;;;11.48;1.50;;;7.20;99.90;;;;;;5083516;28;20036;-37
2023/01/30 10:09:03;;;;;;;15.75;2.15;;;7.30;99.90;;;;;;5059874;28;20052;-38
2023/01/30 10:12:01;;;;;;;14.02;1.60;;;7.30;99.90;;;;;;5081634;28;20044;-38
2023/01/30 10:14:34;;;;;;;16.23;2.65;;;7.20;99.90;;;;;;5054119;28;20407;-37
2023/01/30 10:17:17;;;;;;;14.15;2.33;;;7.20;99.90;;;;;;5074870;28;20051;-38
2023/01/30 10:20:15;;;;;;;11.38;1.85;;;7.20;99.90;;;;;;5078332;28;20515;-38
2023/01/30 10:23:04;;;;;;;10.27;1.88;;;7.30;99.90;;;;;;5025966;28;20136;-39
2023/01/30 10:25:47;;;;;;;20.02;2.67;;;7.30;99.90;;;;;;5080583;28;20127;-38
2023/01/30 10:28:33;;;;;;;12.68;2.15;;;7.40;99.90;;;;;;5083394;28;20456;-39
2023/01/30 10:31:10;;;;;;;13.63;3.17;;;7.50;99.90;;;;;;5080152;28;20036;-36
2023/01/30 10:34:17;;;;;;;21.13;2.53;;;7.50;99.90;;;;;;5082275;28;20504;-45
2023/01/30 10:36:58;;;;;;;12.05;1.30;;;7.60;99.90;;;;;;5058646;28;20284;-38
2023/01/30 10:39:54;;;;;;;16.38;1.55;;;7.70;99.90;;;;;;5084308;28;20043;-36
2023/01/30 10:42:44;;;;;;;11.77;1.90;;;7.80;99.90;;;;;;5062041;28;20417;-36
2023/01/30 10:45:15;;;;;;;14.57;1.90;;;7.70;99.90;;;;;;5083384;28;20048;-38
2023/01/30 10:48:13;;;;;;;14.63;2.03;;;7.70;99.90;;;;;;5084258;28;20040;-37
2023/01/30 10:50:47;;;;;;;11.52;2.22;;;7.80;99.90;;;;;;5076953;28;20035;-35
2023/01/30 10:53:35;;;;;;;15.65;2.17;;;7.70;99.90;;;;;;5073329;28;20067;-42
2023/01/30 10:56:24;;;;;;;14.07;2.28;;;7.70;99.90;;;;;;5084544;28;20036;-37
2023/01/30 10:59:02;;;;;;;19.02;1.90;;;7.90;99.90;;;;;;5080100;28;20080;-36
2023/01/30 11:01:51;;;;;;;12.85;1.55;;;8.00;99.90;;;;;;5083274;28;20036;-36
2023/01/30 11:04:48;;;;;;;14.15;2.53;;;8.10;99.90;;;;;;5079863;28;20051;-37
2023/01/30 11:07:14;;;;;;;12.63;2.25;;;8.10;99.90;;;;;;5077357;28;20036;-38
2023/01/30 11:09:42;;;;;;;15.57;2.80;;;8.10;99.90;;;;;;5075849;28;20039;-38
2023/01/30 11:12:08;;;;;;;13.90;2.20;;;8.10;99.90;;;;;;5075879;28;20224;-38
2023/01/30 11:14:58;;;;;;;22.75;2.70;;;8.10;99.90;;;;;;5078296;28;20050;-36
2023/01/30 11:17:34;;;;;;;14.32;2.70;;;8.20;99.90;;;;;;5076605;28;20126;-40
2023/01/30 11:20:11;;;;;;;14.90;2.08;;;8.30;99.90;;;;;;5076070;28;20047;-38
2023/01/30 11:23:04;;;;;;;10.88;1.63;;;8.50;99.90;;;;;;5076009;28;20032;-38
2023/01/30 11:25:29;;;;;;;19.08;2.65;;;8.60;99.90;;;;;;5070790;28;20062;-37
2023/01/30 11:28:00;;;;;;;18.08;3.22;;;8.70;99.80;;;;;;5075705;28;20753;-36
2023/01/30 11:30:29;;;;;;;14.23;2.22;;;8.60;99.80;;;;;;5071825;28;20051;-36
2023/01/30 11:33:10;;;;;;;12.95;2.22;;;8.50;99.80;;;;;;5078069;28;20508;-39
2023/01/30 11:35:50;;;;;;;14.50;1.90;;;8.40;99.90;;;;;;5073093;28;20037;-37
2023/01/30 11:38:41;;;;;;;17.33;2.22;;;8.30;99.90;;;;;;5080794;28;20174;-38
2023/01/30 11:41:09;;;;;;;11.35;1.92;;;8.30;99.70;;;;;;5074332;28;20047;-42
2023/01/30 11:43:41;;;;;;;22.30;2.05;;;8.70;99.70;;;;;;5076103;28;20060;-37
2023/01/30 11:46:08;;;;;;;12.00;1.42;;;8.70;98.20;;;;;;5080157;28;20039;-39
2023/01/30 11:48:52;;;;;;;15.90;2.90;;;8.60;97.90;;;;;;5079778;28;20504;-40
2023/01/30 11:51:22;;;;;;;17.05;1.50;;;8.50;96.90;;;;;;5077824;28;20040;-40
2023/01/30 11:54:01;;;;;;;19.70;3.08;;;8.40;97.00;;;;;;5073047;28;20047;-38
2023/01/30 11:56:38;;;;;;;16.05;1.80;;;8.40;98.20;;;;;;5078071;28;20050;-37
2023/01/30 11:59:24;;;;;;;16.40;2.17;;;8.40;98.20;;;;;;5079926;28;20040;-38
2023/01/30 12:01:50;;;;;;;12.02;1.65;;;8.50;98.00;;;;;;5076359;28;20489;-38
2023/01/30 12:04:17;;;;;;;15.93;2.30;;;8.50;97.10;;;;;;5073007;28;20509;-37
2023/01/30 12:06:43;;;;;;;16.10;2.28;;;8.60;97.50;;;;;;5078830;28;20040;-37
2023/01/30 12:09:31;;;;;;;14.73;2.03;;;8.80;96.60;;;;;;5083500;28;20618;-37
2023/01/30 12:11:56;;;;;;;15.43;2.08;;;9.10;94.90;;;;;;5073942;28;20071;-37
2023/01/30 12:15:13;;;;;;;10.73;2.03;;;9.10;95.20;;;;;;5070900;28;20041;-39
2023/01/30 12:17:49;;;;;;;15.75;2.28;;;8.80;95.40;;;;;;5036407;28;20054;-39
2023/01/30 12:20:40;;;;;;;18.65;2.53;;;8.60;95.10;;;;;;5055922;28;20048;-46
2023/01/30 12:23:06;;;;;;;16.50;2.10;;;8.40;96.60;;;;;;5074834;28;21335;-38
2023/01/30 12:25:42;;;;;;;14.52;2.17;;;8.40;97.10;;;;;;5072606;28;21964;-40
2023/01/30 12:28:24;;;;;;;18.55;2.40;;;8.40;97.70;;;;;;5072535;28;20050;-39
2023/01/30 12:34:31;;;;;;;5.72;0.88;;;8.00;99.90;;;;;;5071337;28;20097;-40
2023/01/30 12:37:07;;;;;;;9.63;1.00;;;7.60;99.90;;;;;;5076058;28;20044;-40
2023/01/30 12:39:35;;;;;;;9.32;0.80;;;7.30;99.90;;;;;;5058702;28;20059;-38
2023/01/30 12:42:27;;;;;;;9.27;1.15;;;7.00;99.90;;;;;;5084753;28;20121;-38
2023/01/30 12:45:25;;;;;;;10.80;1.90;;;6.80;99.90;;;;;;5084598;28;20485;-38
2023/01/30 12:48:00;;;;;;;16.48;2.63;;;6.60;99.90;;;;;;5085973;28;20039;-38
2023/01/30 12:50:51;;;;;;;15.23;1.77;;;6.70;99.90;;;;;;5085473;28;20043;-38
2023/01/30 12:53:16;;;;;;;11.38;2.00;;;7.40;99.90;;;;;;5087331;28;20090;-47
2023/01/30 12:56:00;;;;;;;7.90;1.67;;;8.40;99.90;;;;;;5090491;28;20039;-38
2023/01/30 12:58:46;;;;;;;12.05;1.42;;;9.00;99.90;;;;;;5084690;28;20072;-38
2023/01/30 13:01:48;;;;;;;9.27;2.25;;;9.70;99.90;;;;;;5063333;28;20044;-38
2023/01/30 13:04:48;;;;;;;18.73;3.30;;;10.30;98.70;;;;;;5069420;28;20503;-38
2023/01/30 13:07:45;;;;;;;15.27;3.28;;;10.60;98.20;;;;;;5074223;28;20036;-39
2023/01/30 13:10:29;;;;;;;17.83;3.10;;;10.60;96.00;;;;;;5072766;28;20055;-38
2023/01/30 13:13:38;;;;;;;13.65;1.95;;;10.80;96.60;;;;;;5082351;28;20040;-38
2023/01/30 13:16:24;;;;;;;15.77;1.90;;;11.20;96.50;;;;;;5049140;28;20090;-41
2023/01/30 13:19:16;;;;;;;10.30;1.60;;;11.10;93.00;;;;;;5085129;28;20472;-40
2023/01/30 13:22:07;;;;;;;14.40;1.77;;;11.20;93.40;;;;;;5077145;28;20043;-38